Terminal Aerodrome Forecast
Issued by NWS Louisville, KY

Home | Current Version | Previous Version | Text Only | Print | Product List | Glossary On
Versions: 1 2 3 4 5 6 7 8 9 10 11 12 13 14 15
000
FTUS43 KLMK 021727
TAFSDF
TAF
KSDF 021727Z 0218/0324 28007KT P6SM BKN030
     FM030300 31004KT P6SM SCT030
     FM031800 35005KT P6SM SCT030 BKN250=

USA.gov is the U.S. government's official web portal to all federal, state and local government web resources and services.